Terminal Aerodrome Forecast
Issued by NWS Northern Indiana

Home | Current Version | Previous Version | Text Only | Print | Product List | Glossary Off
Versions: 1 2 3 4 5 6 7 8 9 10 11 12 13 14

291
FTUS43 KIWX 201120
TAFFWA
TAF
KFWA 201120Z 2012/2112 11009KT P6SM VCSH BKN040
     FM201400 17011KT P6SM BKN050
     FM201800 19008KT 4SM -SHRA BR BKN030
      TEMPO 2019/2021 2SM TSRAGS BR BKN015CB
     FM210100 32006KT 4SM BR OVC008=

USA.gov is the U.S. government's official web portal to all federal, state and local government web resources and services.